createdAt,value
2023-04-22T00:00:09.961Z,8.1
2023-04-22T00:03:11.578Z,8.1
2023-04-22T00:06:10.193Z,8.2
2023-04-22T00:09:09.769Z,8.1
2023-04-22T00:12:09.784Z,8.1
2023-04-22T00:15:09.769Z,8.1
2023-04-22T00:18:10.113Z,8.1
2023-04-22T00:21:09.794Z,8
2023-04-22T00:24:09.811Z,8.1
2023-04-22T00:27:09.759Z,8.1
2023-04-22T00:30:09.838Z,8.2
2023-04-22T00:33:10.258Z,8.2
2023-04-22T00:36:09.796Z,8.2
2023-04-22T00:39:09.879Z,8.2
2023-04-22T00:42:09.834Z,8.2
2023-04-22T00:45:09.774Z,8.2
2023-04-22T00:48:10.066Z,8.3
2023-04-22T00:51:09.856Z,8.3
2023-04-22T00:54:09.886Z,8.3
2023-04-22T00:57:09.852Z,8.4
2023-04-22T01:00:09.802Z,8.4
2023-04-22T01:03:11.237Z,8.6
2023-04-22T01:06:09.845Z,8.6
2023-04-22T01:09:09.810Z,8.6
2023-04-22T01:12:09.773Z,8.7
2023-04-22T01:15:13.881Z,8.7
2023-04-22T01:18:10.243Z,8.6
2023-04-22T01:21:09.728Z,8.6
2023-04-22T01:24:09.853Z,8.6
2023-04-22T01:27:09.807Z,8.6
2023-04-22T01:30:09.893Z,8.6
2023-04-22T01:33:10.149Z,8.4
2023-04-22T01:36:10.952Z,8.4
2023-04-22T01:39:09.857Z,8.3
2023-04-22T01:42:09.848Z,8.3
2023-04-22T01:45:09.854Z,8.2
2023-04-22T01:48:10.213Z,8.1
2023-04-22T01:51:09.806Z,8.1
2023-04-22T01:54:09.792Z,8
2023-04-22T01:57:09.869Z,7.9
2023-04-22T02:00:10.054Z,7.9
2023-04-22T02:03:10.620Z,7.8
2023-04-22T02:06:09.858Z,7.9
2023-04-22T02:09:09.978Z,7.8
2023-04-22T02:12:09.877Z,7.7
2023-04-22T02:15:09.878Z,7.7
2023-04-22T02:18:10.330Z,7.6
2023-04-22T02:21:09.970Z,7.6
2023-04-22T02:24:10.070Z,7.5
2023-04-22T02:27:09.873Z,7.5
2023-04-22T02:30:09.875Z,7.4
2023-04-22T02:33:10.303Z,7.4
2023-04-22T02:36:09.826Z,7.4
2023-04-22T02:39:09.805Z,7.2
2023-04-22T02:42:09.874Z,7.2
2023-04-22T02:45:09.879Z,7.1
2023-04-22T02:48:10.458Z,6.9
2023-04-22T02:51:09.828Z,6.9
2023-04-22T02:54:09.855Z,6.8
2023-04-22T02:57:09.798Z,6.8
2023-04-22T03:00:09.836Z,6.7
2023-04-22T03:03:10.835Z,6.7
2023-04-22T03:06:09.906Z,6.8
2023-04-22T03:09:09.861Z,6.7
2023-04-22T03:12:09.782Z,6.8
2023-04-22T03:15:09.872Z,6.8
2023-04-22T03:18:10.268Z,6.7
2023-04-22T03:21:10.025Z,6.7
2023-04-22T03:24:09.890Z,6.6
2023-04-22T03:27:09.763Z,6.6
2023-04-22T03:30:09.909Z,6.7
2023-04-22T03:33:10.132Z,6.6
2023-04-22T03:36:09.742Z,6.6
2023-04-22T03:39:09.779Z,6.6
2023-04-22T03:42:09.950Z,6.6
2023-04-22T03:45:09.751Z,6.6
2023-04-22T03:48:10.368Z,6.6
2023-04-22T03:51:09.756Z,6.6
2023-04-22T03:54:09.771Z,6.6
2023-04-22T03:57:09.795Z,6.5
2023-04-22T04:00:09.784Z,6.5
2023-04-22T04:03:11.392Z,6.5
2023-04-22T04:06:10.260Z,6.6
2023-04-22T04:09:09.801Z,6.6
2023-04-22T04:12:09.714Z,6.5
2023-04-22T04:15:09.804Z,6.4
2023-04-22T04:18:10.140Z,6.5
2023-04-22T04:21:09.782Z,6.5
2023-04-22T04:24:09.800Z,6.6
2023-04-22T04:27:09.739Z,6.6
2023-04-22T04:30:09.886Z,6.6
2023-04-22T04:33:10.263Z,6.6
2023-04-22T04:36:09.761Z,6.6
2023-04-22T04:39:09.785Z,6.7
2023-04-22T04:42:09.889Z,6.9
2023-04-22T04:45:09.829Z,7.4
2023-04-22T04:48:10.061Z,8
2023-04-22T04:51:09.704Z,8.5
2023-04-22T04:54:09.883Z,8.9
2023-04-22T04:57:09.797Z,9.3
2023-04-22T05:00:09.881Z,9.6
2023-04-22T05:03:10.819Z,9.9
2023-04-22T05:06:09.855Z,10.4
2023-04-22T05:09:09.822Z,10.6
2023-04-22T05:12:09.913Z,11
2023-04-22T05:15:09.835Z,11.3
2023-04-22T05:18:10.408Z,11.6
2023-04-22T05:21:09.813Z,12.1
2023-04-22T05:24:09.802Z,12.3
2023-04-22T05:27:10.020Z,12.7
2023-04-22T05:30:10.213Z,13.1
2023-04-22T05:33:10.229Z,13.4
2023-04-22T05:36:09.810Z,13.5
2023-04-22T05:39:09.826Z,13.6
2023-04-22T05:42:09.859Z,13.7
2023-04-22T05:45:09.878Z,13.9
2023-04-22T05:48:10.192Z,14
2023-04-22T05:51:09.804Z,14.4
2023-04-22T05:54:09.771Z,14.8
2023-04-22T05:57:09.756Z,15.1
2023-04-22T06:00:10.152Z,15.4
2023-04-22T06:03:11.156Z,15.7
2023-04-22T06:06:10.182Z,15.8
2023-04-22T06:09:09.804Z,16.1
2023-04-22T06:12:09.844Z,16.2
2023-04-22T06:15:09.908Z,16.5
2023-04-22T06:18:09.999Z,16.8
2023-04-22T06:21:09.774Z,16.8
2023-04-22T06:24:09.836Z,17.1
2023-04-22T06:27:09.781Z,17.4
2023-04-22T06:30:09.914Z,17.2
2023-04-22T06:33:10.169Z,17.2
2023-04-22T06:36:09.811Z,17.6
2023-04-22T06:39:09.759Z,18
2023-04-22T06:42:09.882Z,18.2
2023-04-22T06:45:09.746Z,17.9
2023-04-22T06:48:09.971Z,18
2023-04-22T06:51:09.760Z,18.1
2023-04-22T06:54:09.905Z,18.1
2023-04-22T06:57:09.786Z,17.8
2023-04-22T07:00:10.263Z,17.9
2023-04-22T07:03:10.457Z,17.9
2023-04-22T07:06:10.008Z,18
2023-04-22T07:09:09.773Z,18.3
2023-04-22T07:12:09.760Z,18
2023-04-22T07:15:09.818Z,18.6
2023-04-22T07:18:09.967Z,18.8
2023-04-22T07:21:09.883Z,18.7
2023-04-22T07:24:09.796Z,18.4
2023-04-22T07:27:09.694Z,18.7
2023-04-22T07:30:09.955Z,19.1
2023-04-22T07:33:10.270Z,19.2
2023-04-22T07:36:09.799Z,19.1
2023-04-22T07:39:10.713Z,18.9
2023-04-22T07:42:09.797Z,19.4
2023-04-22T07:45:09.885Z,19.3
2023-04-22T07:48:10.077Z,19.6
2023-04-22T07:51:09.768Z,19.3
2023-04-22T07:54:09.781Z,19.3
2023-04-22T07:57:09.962Z,19.5
2023-04-22T08:00:09.855Z,19.8
2023-04-22T08:03:11.028Z,20.6
2023-04-22T08:06:09.781Z,20.8
2023-04-22T08:09:09.871Z,21.1
2023-04-22T08:12:09.792Z,21.1
2023-04-22T08:15:09.924Z,20.9
2023-04-22T08:18:10.185Z,21.1
2023-04-22T08:21:09.983Z,20.8
2023-04-22T08:24:09.813Z,20.9
2023-04-22T08:27:09.733Z,21.2
2023-04-22T08:30:10.038Z,21.4
2023-04-22T08:33:10.037Z,22.1
2023-04-22T08:36:09.819Z,22.3
2023-04-22T08:39:09.928Z,22.2
2023-04-22T08:42:09.807Z,22.2
2023-04-22T08:45:10.006Z,22.1
2023-04-22T08:48:10.101Z,22.4
2023-04-22T08:51:09.795Z,22.6
2023-04-22T08:54:09.897Z,22.6
2023-04-22T08:57:09.838Z,22.1
2023-04-22T09:00:10.030Z,22.1
2023-04-22T09:03:10.444Z,22.7
2023-04-22T09:06:09.755Z,22.6
2023-04-22T09:09:09.847Z,22.5
2023-04-22T09:12:09.843Z,22.4
2023-04-22T09:15:09.912Z,23.1
2023-04-22T09:18:09.983Z,22.6
2023-04-22T09:21:09.797Z,22.4
2023-04-22T09:24:09.921Z,23.1
2023-04-22T09:27:09.789Z,23
2023-04-22T09:30:09.818Z,22.6
2023-04-22T09:33:10.240Z,22.8
2023-04-22T09:36:09.866Z,23.1
2023-04-22T09:39:09.849Z,23.5
2023-04-22T09:42:09.761Z,23.1
2023-04-22T09:45:11.165Z,22.9
2023-04-22T09:48:09.972Z,23.8
2023-04-22T09:51:09.840Z,23.4
2023-04-22T09:54:09.788Z,22.8
2023-04-22T09:57:11.633Z,22.9
2023-04-22T10:00:09.773Z,23.1
2023-04-22T10:03:13.373Z,23.1
2023-04-22T10:06:09.685Z,23.5
2023-04-22T10:09:12.576Z,24.3
2023-04-22T10:12:09.816Z,24.4
2023-04-22T10:15:09.759Z,24.2
2023-04-22T10:18:09.808Z,24.1
2023-04-22T10:21:09.705Z,24.4
2023-04-22T10:24:09.786Z,24.4
2023-04-22T10:27:09.798Z,24.5
2023-04-22T10:30:09.772Z,23.8
2023-04-22T10:33:09.875Z,23.9
2023-04-22T10:36:09.753Z,23.9
2023-04-22T10:39:09.736Z,23.6
2023-04-22T10:42:09.828Z,23.7
2023-04-22T10:45:09.830Z,23.9
2023-04-22T10:48:10.326Z,24.1
2023-04-22T10:51:09.891Z,24.3
2023-04-22T10:54:09.756Z,23.8
2023-04-22T10:57:09.896Z,23.9
2023-04-22T11:00:09.907Z,24
2023-04-22T11:03:10.755Z,24.2
2023-04-22T11:06:09.969Z,24.5
2023-04-22T11:09:09.852Z,24.1
2023-04-22T11:12:09.837Z,24.3
2023-04-22T11:15:09.669Z,24.6
2023-04-22T11:18:09.922Z,25.4
2023-04-22T11:21:09.785Z,25.3
2023-04-22T11:24:09.910Z,24.7
2023-04-22T11:27:09.754Z,24.7
2023-04-22T11:30:09.988Z,25
2023-04-22T11:33:09.911Z,25.4
2023-04-22T11:36:10.113Z,25.3
2023-04-22T11:39:09.791Z,25.2
2023-04-22T11:42:09.739Z,25.5
2023-04-22T11:45:09.801Z,26.1
2023-04-22T11:48:09.982Z,25.9
2023-04-22T11:51:09.835Z,25.5
2023-04-22T11:54:09.819Z,25.7
2023-04-22T11:57:09.845Z,26.1
2023-04-22T12:00:10.076Z,25.8
2023-04-22T12:03:13.478Z,25.4
2023-04-22T12:06:09.964Z,25.8
2023-04-22T12:09:10.156Z,25.9
2023-04-22T12:12:09.870Z,25.8
2023-04-22T12:15:10.598Z,25.6
2023-04-22T12:18:10.100Z,25.4
2023-04-22T12:21:09.842Z,25.5
2023-04-22T12:24:09.765Z,25.6
2023-04-22T12:27:09.829Z,25.9
2023-04-22T12:30:09.924Z,26.1
2023-04-22T12:33:09.806Z,26.4
2023-04-22T12:36:09.910Z,26.8
2023-04-22T12:39:09.799Z,26.2
2023-04-22T12:42:09.857Z,26.3
2023-04-22T12:45:09.918Z,25.6
2023-04-22T12:48:09.761Z,25.2
2023-04-22T12:51:09.875Z,25.3
2023-04-22T12:54:09.901Z,25.3
2023-04-22T12:57:09.720Z,25.1
2023-04-22T13:00:09.841Z,24.8
2023-04-22T13:03:10.771Z,24.3
2023-04-22T13:06:09.862Z,23.8
2023-04-22T13:09:09.937Z,23.7
2023-04-22T13:12:09.833Z,23.7
2023-04-22T13:15:09.876Z,23.6
2023-04-22T13:18:10.226Z,23.9
2023-04-22T13:21:09.881Z,24.2
2023-04-22T13:24:09.907Z,24.1
2023-04-22T13:27:09.808Z,24.4
2023-04-22T13:30:09.921Z,24.3
2023-04-22T13:33:10.036Z,24
2023-04-22T13:36:09.906Z,23.9
2023-04-22T13:39:09.841Z,23.8
2023-04-22T13:42:09.871Z,23.6
2023-04-22T13:45:09.844Z,23.1
2023-04-22T13:48:10.279Z,22.9
2023-04-22T13:51:09.821Z,23.1
2023-04-22T13:54:09.826Z,23.6
2023-04-22T13:57:09.908Z,23.9
2023-04-22T14:00:10.008Z,24.1
2023-04-22T14:03:10.751Z,24.3
2023-04-22T14:06:09.819Z,24.3
2023-04-22T14:09:09.797Z,24.4
2023-04-22T14:12:09.717Z,24.5
2023-04-22T14:15:09.905Z,24.4
2023-04-22T14:18:09.984Z,24.5
2023-04-22T14:21:09.782Z,24.9
2023-04-22T14:27:11.216Z,24.9
2023-04-22T14:30:10.113Z,24.4
2023-04-22T14:33:10.105Z,23.9
2023-04-22T14:36:09.762Z,23.9
2023-04-22T14:39:09.835Z,23.3
2023-04-22T14:42:09.817Z,23
2023-04-22T14:45:09.782Z,22.9
2023-04-22T14:48:10.225Z,22.9
2023-04-22T14:51:09.695Z,22.8
2023-04-22T14:54:09.855Z,22.7
2023-04-22T14:57:09.698Z,22.8
2023-04-22T15:00:09.900Z,22.8
2023-04-22T15:03:10.718Z,22.8
2023-04-22T15:06:09.787Z,22.8
2023-04-22T15:09:09.782Z,22.8
2023-04-22T15:12:09.777Z,22.9
2023-04-22T15:15:09.693Z,23
2023-04-22T15:18:09.883Z,23.1
2023-04-22T15:21:09.706Z,22.9
2023-04-22T15:24:09.790Z,22.6
2023-04-22T15:27:10.262Z,22.4
2023-04-22T15:30:09.853Z,22.3
2023-04-22T15:33:10.114Z,22.2
2023-04-22T15:36:09.819Z,22.2
2023-04-22T15:39:09.865Z,22
2023-04-22T15:42:09.779Z,21.8
2023-04-22T15:45:12.861Z,21.8
2023-04-22T15:48:10.028Z,21.6
2023-04-22T15:51:09.758Z,21.5
2023-04-22T15:54:09.782Z,21.4
2023-04-22T15:57:09.791Z,21.5
2023-04-22T16:00:22.072Z,21.6
2023-04-22T16:03:10.769Z,21.6
2023-04-22T16:06:09.726Z,21.6
2023-04-22T16:09:09.721Z,21.8
2023-04-22T16:12:09.820Z,22
2023-04-22T16:15:09.871Z,22.1
2023-04-22T16:18:09.887Z,21.9
2023-04-22T16:21:09.851Z,21.8
2023-04-22T16:24:09.802Z,21.8
2023-04-22T16:27:09.827Z,21.6
2023-04-22T16:30:10.001Z,21.4
2023-04-22T16:33:10.082Z,21.2
2023-04-22T16:36:09.787Z,21.1
2023-04-22T16:39:09.745Z,20.9
2023-04-22T16:42:09.787Z,20.8
2023-04-22T16:45:09.804Z,20.6
2023-04-22T16:48:10.055Z,20.6
2023-04-22T16:51:09.755Z,20.6
2023-04-22T16:54:09.794Z,20.4
2023-04-22T16:57:10.460Z,20.4
2023-04-22T17:00:10.219Z,20.2
2023-04-22T17:03:11.256Z,20.1
2023-04-22T17:06:09.847Z,20.1
2023-04-22T17:09:09.763Z,20.1
2023-04-22T17:12:09.841Z,20.1
2023-04-22T17:15:09.875Z,20.1
2023-04-22T17:18:10.049Z,20
2023-04-22T17:21:09.917Z,19.9
2023-04-22T17:24:09.848Z,19.8
2023-04-22T17:27:09.757Z,19.7
2023-04-22T17:30:09.782Z,19.6
2023-04-22T17:33:09.964Z,19.4
2023-04-22T17:36:10.006Z,19.2
2023-04-22T17:39:09.728Z,19.1
2023-04-22T17:42:09.759Z,19
2023-04-22T17:45:09.792Z,18.9
2023-04-22T17:48:09.968Z,18.8
2023-04-22T17:51:09.826Z,18.6
2023-04-22T17:54:09.860Z,18.4
2023-04-22T17:57:09.853Z,18.2
2023-04-22T18:00:09.779Z,18
2023-04-22T18:03:11.244Z,17.9
2023-04-22T18:06:09.881Z,17.8
2023-04-22T18:09:09.734Z,17.6
2023-04-22T18:12:09.839Z,17.4
2023-04-22T18:15:09.781Z,17.3
2023-04-22T18:18:09.835Z,17.2
2023-04-22T18:21:09.723Z,17.2
2023-04-22T18:24:09.803Z,17.2
2023-04-22T18:27:09.798Z,17.2
2023-04-22T18:30:09.779Z,17.2
2023-04-22T18:33:09.970Z,17.3
2023-04-22T18:36:09.835Z,17.4
2023-04-22T18:39:09.807Z,17.4
2023-04-22T18:42:09.790Z,17.4
2023-04-22T18:45:16.013Z,17.4
2023-04-22T18:48:10.148Z,17.3
2023-04-22T18:51:09.745Z,17.4
2023-04-22T18:54:09.901Z,17.3
2023-04-22T18:57:09.705Z,17.3
2023-04-22T19:00:09.704Z,17.2
2023-04-22T19:03:11.023Z,17.1
2023-04-22T19:06:09.699Z,16.9
2023-04-22T19:09:09.667Z,16.8
2023-04-22T19:12:09.717Z,16.8
2023-04-22T19:15:09.747Z,16.8
2023-04-22T19:18:09.889Z,16.8
2023-04-22T19:21:09.940Z,16.9
2023-04-22T19:24:09.796Z,17.1
2023-04-22T19:27:09.718Z,17.1
2023-04-22T19:30:09.811Z,17.2
2023-04-22T19:33:10.140Z,17.2
2023-04-22T19:36:09.884Z,17.2
2023-04-22T19:39:09.767Z,17.1
2023-04-22T19:42:09.723Z,17.2
2023-04-22T19:45:09.695Z,17.4
2023-04-22T19:48:09.875Z,17.6
2023-04-22T19:51:09.685Z,17.8
2023-04-22T19:54:09.801Z,17.8
2023-04-22T19:57:09.668Z,17.9
2023-04-22T20:00:09.780Z,18
2023-04-22T20:03:10.750Z,18
2023-04-22T20:06:09.715Z,17.9
2023-04-22T20:09:09.709Z,17.9
2023-04-22T20:12:09.754Z,17.9
2023-04-22T20:15:09.692Z,17.8
2023-04-22T20:18:10.051Z,17.8
2023-04-22T20:21:09.879Z,17.6
2023-04-22T20:24:09.703Z,17.6
2023-04-22T20:27:09.920Z,17.4
2023-04-22T20:30:09.725Z,17.4
2023-04-22T20:33:10.258Z,17.3
2023-04-22T20:36:09.690Z,17.2
2023-04-22T20:39:09.659Z,17
2023-04-22T20:42:09.731Z,16.9
2023-04-22T20:45:09.838Z,16.7
2023-04-22T20:48:10.118Z,16.6
2023-04-22T20:51:09.757Z,16.6
2023-04-22T20:54:45.658Z,16.5
2023-04-22T20:57:09.716Z,16.4
2023-04-22T21:00:09.690Z,16.3
2023-04-22T21:03:10.575Z,16.2
2023-04-22T21:06:09.789Z,16.1
2023-04-22T21:09:09.760Z,16
2023-04-22T21:12:09.747Z,15.9
2023-04-22T21:15:09.892Z,15.8
2023-04-22T21:18:10.059Z,15.8
2023-04-22T21:21:09.786Z,15.7
2023-04-22T21:24:09.684Z,15.6
2023-04-22T21:27:09.770Z,15.6
2023-04-22T21:30:09.746Z,15.7
2023-04-22T21:33:09.809Z,15.8
2023-04-22T21:36:09.813Z,15.8
2023-04-22T21:39:09.739Z,15.8
2023-04-22T21:42:10.273Z,15.9
2023-04-22T21:45:09.880Z,15.9
2023-04-22T21:48:09.939Z,16.1
2023-04-22T21:51:09.723Z,16.3
2023-04-22T21:54:09.727Z,16.4
2023-04-22T21:57:09.790Z,16.3
2023-04-22T22:00:11.043Z,16.4
2023-04-22T22:03:10.791Z,16.5
2023-04-22T22:06:09.710Z,16.4
2023-04-22T22:09:09.772Z,16.4
2023-04-22T22:12:09.786Z,16.4
2023-04-22T22:15:09.645Z,16.4
2023-04-22T22:18:09.799Z,16.4
2023-04-22T22:21:09.794Z,16.3
2023-04-22T22:24:09.790Z,16.3
2023-04-22T22:27:09.722Z,16.3
2023-04-22T22:30:09.858Z,16.4
2023-04-22T22:33:10.060Z,16.3
2023-04-22T22:36:09.802Z,16.2
2023-04-22T22:39:09.703Z,16.1
2023-04-22T22:42:09.752Z,15.8
2023-04-22T22:45:09.928Z,15.7
2023-04-22T22:48:10.132Z,15.8
2023-04-22T22:51:09.786Z,15.8
2023-04-22T22:54:09.994Z,15.8
2023-04-22T22:57:09.723Z,15.8
2023-04-22T23:00:09.750Z,15.9
2023-04-22T23:03:11.176Z,15.9
2023-04-22T23:06:09.708Z,15.9
2023-04-22T23:09:09.731Z,15.9
2023-04-22T23:12:09.808Z,15.8
2023-04-22T23:15:09.649Z,15.8
2023-04-22T23:18:09.990Z,15.7
2023-04-22T23:21:09.891Z,15.6
2023-04-22T23:24:09.705Z,15.6
2023-04-22T23:27:09.719Z,15.4
2023-04-22T23:30:09.890Z,15.4
2023-04-22T23:33:09.787Z,15.3
2023-04-22T23:36:09.664Z,15.3
2023-04-22T23:39:09.885Z,15.2
2023-04-22T23:42:09.684Z,15.2
2023-04-22T23:45:09.714Z,15.2
2023-04-22T23:48:09.787Z,15.2
2023-04-22T23:51:09.766Z,15.2
2023-04-22T23:54:09.699Z,15.1
2023-04-22T23:57:09.731Z,15.1
